Lansing, MI

5:10 PM EST on November 28, 2014 (GMT -0500)
Delta Township | Change Station
CLOSE
Current Station
Personal Weather Station
Location: Lansing, MI
Elevation: 830 ft
Nearby Weather Stations

Elev 830 ft 42.76 °N, 84.63 °W | Updated 4 minutes ago

Overcast
Overcast
25.6 °F
Feels Like 26 °F
N
2.0
Wind Variable Wind from ESE
Gusts 3.0 mph

Today
High -- | Low -- °F
--% Chance of Precip.
Yesterday
High -- | Low -- °F
Precip. -- in
7:45 AM 5:06 PM
Waxing Crescent, 44% visible
Pressure 30.16 in
Visibility 9.0 miles
Clouds Overcast 7000 ft
Windchill 26 °F
Dew Point 20 °F
Humidity 79%
Rainfall 0.00 in
Snow Depth Not available.
UV 0.0 out of 12
Pollen .10 out of 12
Air Quality Not available.
Flu Activity Not available.
METAR KLAN 282153Z 16011KT 9SM OVC070 M04/M08 A3011 RMK AO2 SNE09 SLP212 P0000 T10391083

More Conditions Fewer Conditions

Pressure 30.16 in
Visibility 9.0 miles
Clouds Overcast 7000 ft
Windchill 26 °F
Dew Point 20 °F
Humidity 79%
Rainfall 0.00 in
Snow Depth Not available.
UV 0.0 out of 12
Pollen .10 out of 12
Air Quality Not available.
Flu Activity Not available.
METAR KLAN 282153Z 16011KT 9SM OVC070 M04/M08 A3011 RMK AO2 SNE09 SLP212 P0000 T10391083

More Conditions Fewer Conditions

10-Day Weather Forecast

Almanac

Astronomy

Nov. 28, 2014 Rise Set
Actual Time
Civil Twilight
Nautical Twilight
Astronomical Twilight
Moon
Length of Visible Light
Length of Day
Tomorrow will be .
, % of the Moon is Illuminated

Today's Extremes

State Highs State Lows

Community

WunderPhotos

Upload Photos

1,774,314 photos uploaded!

WunderBlogs® & News

Nearby

Air Quality

  Air Quality AQ Index Pollutant
Not available.

Snow Depth

Station Depth Elevation

Earthquake Activity

City Distance Mag. Time & Date
Minimum magnitude displayed is 2.5.

Coastal Water Temperatures

Place Temperature

Nearby Weather Stations